»·PEaware :: N194TH KOXR-KSBA

N194TH :: KOXR-KSBA

FLIGHT INFORMATION

Flight Status: Arrived
Operator: Privately registered:
United States
More flights under this callsign
Pilot: Chris C. (23764)
Aircraft: CESSNA 172 SKYHAWK
(C172)
More flights by this aircraft type
Origin: KOXR Oxnard
United States
Destination: KSBA Santa Barbara Mun
United States
More flights between these airports :: More routes between these airports
Route: KWANG
File this flight plan on PilotEdge
Remarks: TECH ROUTE TO KSBA
Altitude:
(Current/Filed)
4,000ft
Speed:
(Current/Filed)
116kts
Departed: 30-Dec-20 06:21 PM
Arrived: 30-Dec-20 06:54 PM
Distance/Time
Traveled:
35nm/0:33
Distance/Time
To Go:
Arrived

Flight Plot

Page will automatically refresh every two minutes.


Map Options




Map Legend


Flown Route
Filed Route
Departure Airport
Arrival Airport
Navaid (VOR, NDB)
Fix

Horizontal Profiles

Position Reports

Time Latitude Longitude Heading Altitude Ground
Speed
30-Dec-20 17:51 34.198999 -119.197767 269 43ft 0kts
30-Dec-20 17:52 34.198999 -119.197767 269 43ft 0kts
30-Dec-20 17:53 34.198999 -119.197767 269 43ft 0kts
30-Dec-20 17:54 34.198999 -119.197767 269 43ft 0kts
30-Dec-20 17:55 34.198999 -119.197767 269 43ft 0kts
30-Dec-20 17:56 34.198999 -119.197767 269 43ft 0kts
30-Dec-20 17:57 34.198999 -119.197767 269 43ft 0kts
30-Dec-20 17:58 34.198999 -119.197767 269 43ft 0kts
30-Dec-20 17:59 34.198999 -119.197767 269 43ft 0kts
30-Dec-20 18:00 34.198999 -119.197767 269 43ft 0kts
30-Dec-20 18:01 34.198999 -119.197767 269 43ft 0kts
30-Dec-20 18:02 34.198999 -119.197767 269 43ft 0kts
30-Dec-20 18:03 34.198999 -119.197767 269 43ft 0kts
30-Dec-20 18:03 34.198999 -119.197767 269 43ft 0kts
30-Dec-20 18:04 34.198999 -119.197767 269 43ft 0kts
30-Dec-20 18:05 34.198999 -119.197767 269 43ft 0kts
30-Dec-20 18:06 34.198999 -119.197767 269 43ft 0kts
30-Dec-20 18:07 34.198999 -119.197767 269 43ft 0kts
30-Dec-20 18:08 34.198999 -119.197767 269 43ft 0kts
30-Dec-20 18:09 34.198999 -119.197767 269 43ft 0kts
30-Dec-20 18:10 34.198999 -119.197767 269 43ft 0kts
30-Dec-20 18:11 34.198999 -119.197767 269 43ft 0kts
30-Dec-20 18:12 34.198999 -119.197767 269 43ft 0kts
30-Dec-20 18:13 34.198999 -119.197767 269 43ft 0kts
30-Dec-20 18:15 34.198999 -119.197767 269 43ft 0kts
30-Dec-20 18:15 34.199067 -119.198006 314 43ft 9kts
30-Dec-20 18:16 34.199917 -119.197564 26 43ft 0kts
30-Dec-20 18:17 34.199917 -119.197564 26 43ft 0kts
30-Dec-20 18:18 34.199917 -119.197564 26 43ft 0kts
30-Dec-20 18:19 34.199917 -119.197564 26 43ft 0kts
30-Dec-20 18:20 34.200713 -119.200574 271 42ft 52kts
30-Dec-20 18:21 34.200114 -119.218961 269 599ft 64kts
30-Dec-20 18:22 34.199565 -119.237656 266 1168ft 68kts
30-Dec-20 18:23 34.197650 -119.257518 269 1741ft 69kts
30-Dec-20 18:24 34.195546 -119.276805 266 2280ft 69kts
30-Dec-20 18:25 34.194468 -119.295759 267 2776ft 71kts
30-Dec-20 18:26 34.193251 -119.314846 265 3265ft 71kts
30-Dec-20 18:27 34.191213 -119.334002 273 3733ft 70kts
30-Dec-20 18:28 34.189683 -119.354307 269 4029ft 87kts
30-Dec-20 18:29 34.187718 -119.378628 267 4124ft 93kts
30-Dec-20 18:30 34.186306 -119.404292 265 3994ft 96kts
30-Dec-20 18:31 34.184683 -119.429350 265 3943ft 94kts
30-Dec-20 18:32 34.183536 -119.454365 269 4102ft 89kts
30-Dec-20 18:33 34.198304 -119.466879 14 4102ft 107kts
30-Dec-20 18:34 34.216646 -119.445485 42 4084ft 117kts
30-Dec-20 18:35 34.238395 -119.435622 338 4146ft 100kts
30-Dec-20 18:36 34.257277 -119.446418 319 4175ft 99kts
30-Dec-20 18:37 34.267926 -119.467458 286 4061ft 103kts
30-Dec-20 18:38 34.275973 -119.494007 295 4104ft 94kts
30-Dec-20 18:39 34.283702 -119.519057 294 4060ft 99kts
30-Dec-20 18:40 34.291154 -119.544619 294 4084ft 96kts
30-Dec-20 18:41 34.303389 -119.567336 314 4020ft 100kts
30-Dec-20 18:42 34.317476 -119.587336 304 4032ft 99kts
30-Dec-20 18:43 34.329915 -119.610647 304 4023ft 100kts
30-Dec-20 18:44 34.342767 -119.633875 304 4017ft 100kts
30-Dec-20 18:45 34.354796 -119.660566 305 4005ft 101kts
30-Dec-20 18:46 34.368974 -119.687299 302 4045ft 100kts
30-Dec-20 18:47 34.385803 -119.710956 309 3739ft 91kts
30-Dec-20 18:48 34.394013 -119.736552 303 2660ft 92kts
30-Dec-20 18:49 34.402183 -119.758747 293 2108ft 83kts
30-Dec-20 18:50 34.413176 -119.780982 292 1844ft 86kts
30-Dec-20 18:51 34.421086 -119.805678 281 1111ft 85kts
30-Dec-20 18:52 34.428037 -119.831401 261 251ft 80kts
30-Dec-20 18:53 34.427572 -119.848883 270 14ft 33kts
30-Dec-20 18:54 34.426608 -119.851587 117 14ft 0kts

Navigation Log

Ident Type
Flight plan parsing failed, navigation log unavailable